createdAt,value
2024-03-09T00:00:02.592Z,1
2024-03-09T00:05:02.906Z,1
2024-03-09T00:10:02.689Z,1
2024-03-09T00:15:03.360Z,1
2024-03-09T00:20:02.579Z,1
2024-03-09T00:25:02.908Z,1
2024-03-09T00:30:03.092Z,1
2024-03-09T00:35:02.610Z,1
2024-03-09T00:40:02.946Z,1
2024-03-09T00:45:02.286Z,1
2024-03-09T00:50:02.499Z,1
2024-03-09T00:55:02.739Z,1
2024-03-09T01:00:02.821Z,1
2024-03-09T01:05:02.461Z,1
2024-03-09T01:10:02.774Z,1
2024-03-09T01:15:03.112Z,1
2024-03-09T01:20:02.444Z,1
2024-03-09T01:25:02.898Z,1
2024-03-09T01:30:03.309Z,1
2024-03-09T01:35:02.693Z,1
2024-03-09T01:40:03.144Z,1
2024-03-09T01:45:02.293Z,1
2024-03-09T01:50:02.777Z,1
2024-03-09T01:55:03.065Z,1
2024-03-09T02:00:02.409Z,1
2024-03-09T02:05:02.566Z,1
2024-03-09T02:10:03.048Z,1
2024-03-09T02:15:02.355Z,1
2024-03-09T02:20:02.758Z,1
2024-03-09T02:25:03.283Z,1
2024-03-09T02:30:02.653Z,1
2024-03-09T02:35:03.287Z,1
2024-03-09T02:40:02.684Z,1
2024-03-09T02:45:02.916Z,1
2024-03-09T02:50:03.258Z,1
2024-03-09T02:55:02.576Z,1
2024-03-09T03:00:02.813Z,1
2024-03-09T03:05:03.151Z,1
2024-03-09T03:10:02.481Z,1
2024-03-09T03:15:02.973Z,1
2024-03-09T03:20:02.411Z,1
2024-03-09T03:25:02.937Z,1
2024-03-09T03:30:02.401Z,1
2024-03-09T03:35:02.858Z,1
2024-03-09T03:40:03.142Z,1
2024-03-09T03:45:02.548Z,1
2024-03-09T03:50:02.842Z,1
2024-03-09T03:55:03.117Z,1
2024-03-09T04:00:02.332Z,1
2024-03-09T04:05:02.655Z,1
2024-03-09T04:10:02.857Z,1
2024-03-09T04:15:03.166Z,1
2024-03-09T04:20:02.314Z,1
2024-03-09T04:25:07.269Z,1
2024-03-09T04:30:02.457Z,1
2024-03-09T04:35:02.822Z,1
2024-03-09T04:40:02.245Z,1
2024-03-09T04:45:02.568Z,1
2024-03-09T04:50:02.929Z,1
2024-03-09T04:55:02.210Z,1
2024-03-09T05:00:02.487Z,1
2024-03-09T05:05:02.765Z,1
2024-03-09T05:10:03.113Z,1
2024-03-09T05:15:02.399Z,1
2024-03-09T05:20:02.724Z,1
2024-03-09T05:25:03.062Z,1
2024-03-09T05:30:02.289Z,3
2024-03-09T05:35:02.494Z,3
2024-03-09T05:40:02.789Z,18
2024-03-09T05:45:03.021Z,28
2024-03-09T05:50:02.514Z,28
2024-03-09T05:55:02.979Z,72
2024-03-09T06:00:02.278Z,72
2024-03-09T06:05:02.722Z,261
2024-03-09T06:10:03.051Z,261
2024-03-09T06:15:02.347Z,506
2024-03-09T06:20:02.651Z,676
2024-03-09T06:25:02.945Z,676
2024-03-09T06:30:02.247Z,1000
2024-03-09T06:35:02.621Z,1000
2024-03-09T06:40:03.020Z,1000
2024-03-09T06:45:02.327Z,1000
2024-03-09T06:50:02.697Z,2000
2024-03-09T06:55:03.098Z,2000
2024-03-09T07:00:02.331Z,2000
2024-03-09T07:05:02.580Z,2000
2024-03-09T07:10:02.901Z,3000
2024-03-09T07:15:03.331Z,3000
2024-03-09T07:20:02.680Z,4000
2024-03-09T07:25:03.223Z,4000
2024-03-09T07:30:02.500Z,5000
2024-03-09T07:35:02.846Z,5000
2024-03-09T07:40:03.158Z,5000
2024-03-09T07:45:02.490Z,5000
2024-03-09T07:50:02.871Z,6000
2024-03-09T07:55:03.229Z,6000
2024-03-09T08:00:07.626Z,6000
2024-03-09T08:05:03.693Z,6000
2024-03-09T08:10:03.168Z,7000
2024-03-09T08:15:02.670Z,7000
2024-03-09T08:20:03.240Z,10000
2024-03-09T08:25:03.014Z,10000
2024-03-09T08:30:02.309Z,7000
2024-03-09T08:35:02.646Z,7000
2024-03-09T08:40:02.934Z,7000
2024-03-09T08:45:02.686Z,7000
2024-03-09T08:50:02.962Z,13000
2024-03-09T08:55:02.279Z,33000
2024-03-09T09:00:02.956Z,71000
2024-03-09T09:05:02.330Z,68000
2024-03-09T09:10:02.714Z,68000
2024-03-09T09:15:03.659Z,72000
2024-03-09T09:20:04.644Z,72000
2024-03-09T09:25:03.059Z,51000
2024-03-09T09:30:02.350Z,51000
2024-03-09T09:35:02.588Z,70000
2024-03-09T09:40:03.128Z,70000
2024-03-09T09:45:02.503Z,76000
2024-03-09T09:50:02.885Z,76000
2024-03-09T09:55:02.141Z,53000
2024-03-09T10:00:02.390Z,53000
2024-03-09T10:05:02.749Z,81000
2024-03-09T10:10:02.603Z,81000
2024-03-09T10:15:03.196Z,79000
2024-03-09T10:20:02.626Z,78000
2024-03-09T10:25:02.833Z,78000
2024-03-09T10:30:03.072Z,79000
2024-03-09T10:35:02.379Z,79000
2024-03-09T10:40:02.760Z,82000
2024-03-09T10:45:02.966Z,82000
2024-03-09T10:50:02.184Z,86000
2024-03-09T10:55:02.688Z,82000
2024-03-09T11:00:02.952Z,82000
2024-03-09T11:05:02.418Z,82000
2024-03-09T11:10:02.699Z,82000
2024-03-09T11:15:03.074Z,82000
2024-03-09T11:20:02.579Z,82000
2024-03-09T11:25:02.918Z,83000
2024-03-09T11:30:03.237Z,83000
2024-03-09T11:35:12.653Z,87000
2024-03-09T11:40:03.027Z,87000
2024-03-09T11:45:02.126Z,20000
2024-03-09T11:50:02.472Z,19000
2024-03-09T11:55:02.645Z,19000
2024-03-09T12:00:02.916Z,66000
2024-03-09T12:05:02.241Z,66000
2024-03-09T12:10:02.619Z,55000
2024-03-09T12:15:02.904Z,55000
2024-03-09T12:20:03.222Z,21000
2024-03-09T12:25:02.473Z,87000
2024-03-09T12:30:02.651Z,87000
2024-03-09T12:35:02.956Z,77000
2024-03-09T12:40:12.261Z,77000
2024-03-09T12:45:02.555Z,74000
2024-03-09T12:50:02.955Z,74000
2024-03-09T12:55:02.289Z,71000
2024-03-09T13:00:02.560Z,71000
2024-03-09T13:05:02.846Z,70000
2024-03-09T13:10:05.498Z,70000
2024-03-09T13:15:03.335Z,68000
2024-03-09T13:20:02.624Z,68000
2024-03-09T13:25:02.928Z,67000
2024-03-09T13:30:03.171Z,67000
2024-03-09T13:35:02.907Z,69000
2024-03-09T13:40:02.351Z,69000
2024-03-09T13:45:02.757Z,12000
2024-03-09T13:50:03.332Z,12000
2024-03-09T13:55:02.591Z,10000
2024-03-09T14:00:02.938Z,10000
2024-03-09T14:05:02.593Z,10000
2024-03-09T14:10:02.946Z,14000
2024-03-09T14:15:02.239Z,14000
2024-03-09T14:20:02.930Z,51000
2024-03-09T14:25:02.216Z,51000
2024-03-09T14:30:02.703Z,12000
2024-03-09T14:35:03.364Z,12000
2024-03-09T14:40:02.692Z,10000
2024-03-09T14:45:03.054Z,10000
2024-03-09T14:50:02.530Z,8000
2024-03-09T14:55:02.824Z,8000
2024-03-09T15:00:03.340Z,12000
2024-03-09T15:05:02.769Z,12000
2024-03-09T15:10:03.117Z,12000
2024-03-09T15:15:02.404Z,12000
2024-03-09T15:20:02.738Z,16000
2024-03-09T15:25:10.192Z,16000
2024-03-09T15:30:02.636Z,8000
2024-03-09T15:35:02.857Z,8000
2024-03-09T15:40:02.200Z,5000
2024-03-09T15:45:02.588Z,5000
2024-03-09T15:50:02.818Z,4000
2024-03-09T15:55:03.063Z,4000
2024-03-09T16:00:02.417Z,3000
2024-03-09T16:05:02.873Z,3000
2024-03-09T16:10:03.203Z,3000
2024-03-09T16:15:02.423Z,3000
2024-03-09T16:20:02.730Z,2000
2024-03-09T16:25:03.120Z,2000
2024-03-09T16:30:02.508Z,2000
2024-03-09T16:35:02.883Z,2000
2024-03-09T16:40:02.262Z,2000
2024-03-09T16:45:02.829Z,2000
2024-03-09T16:50:03.080Z,1000
2024-03-09T16:55:02.388Z,1000
2024-03-09T17:00:02.617Z,1000
2024-03-09T17:05:03.033Z,1000
2024-03-09T17:10:02.335Z,669
2024-03-09T17:15:02.582Z,669
2024-03-09T17:20:02.947Z,390
2024-03-09T17:25:02.307Z,390
2024-03-09T17:30:02.564Z,98
2024-03-09T17:35:02.837Z,98
2024-03-09T17:40:03.108Z,54
2024-03-09T17:45:02.430Z,54
2024-03-09T17:50:02.651Z,21
2024-03-09T17:55:06.590Z,13
2024-03-09T18:00:02.787Z,13
2024-03-09T18:05:03.303Z,3
2024-03-09T18:10:02.614Z,3
2024-03-09T18:15:03.046Z,1
2024-03-09T18:20:02.443Z,1
2024-03-09T18:25:02.939Z,1
2024-03-09T18:30:02.249Z,1
2024-03-09T18:35:02.504Z,1
2024-03-09T18:40:02.977Z,1
2024-03-09T18:45:02.200Z,1
2024-03-09T18:50:02.780Z,1
2024-03-09T18:55:03.082Z,1
2024-03-09T19:00:05.386Z,1
2024-03-09T19:05:02.464Z,1
2024-03-09T19:10:02.837Z,1
2024-03-09T19:15:03.132Z,1
2024-03-09T19:20:02.381Z,1
2024-03-09T19:25:02.732Z,1
2024-03-09T19:30:03.141Z,1
2024-03-09T19:35:02.595Z,1
2024-03-09T19:40:02.754Z,1
2024-03-09T19:45:02.997Z,1
2024-03-09T19:50:05.699Z,1
2024-03-09T19:55:02.859Z,1
2024-03-09T20:00:03.115Z,1
2024-03-09T20:05:02.334Z,1
2024-03-09T20:10:02.572Z,1
2024-03-09T20:15:02.886Z,1
2024-03-09T20:20:02.221Z,1
2024-03-09T20:25:02.447Z,1
2024-03-09T20:30:02.588Z,1
2024-03-09T20:35:02.909Z,1
2024-03-09T20:40:02.217Z,1
2024-03-09T20:45:02.648Z,1
2024-03-09T20:50:02.979Z,1
2024-03-09T20:55:02.349Z,1
2024-03-09T21:00:02.681Z,1
2024-03-09T21:05:02.954Z,1
2024-03-09T21:10:02.361Z,1
2024-03-09T21:15:02.581Z,1
2024-03-09T21:20:02.922Z,1
2024-03-09T21:25:02.220Z,1
2024-03-09T21:30:02.494Z,1
2024-03-09T21:35:02.808Z,1
2024-03-09T21:40:03.126Z,1
2024-03-09T21:45:02.504Z,1
2024-03-09T21:50:03.004Z,1
2024-03-09T21:55:02.368Z,1
2024-03-09T22:00:02.710Z,1
2024-03-09T22:05:02.955Z,1
2024-03-09T22:10:02.238Z,1
2024-03-09T22:15:02.508Z,1
2024-03-09T22:20:02.884Z,1
2024-03-09T22:25:03.172Z,1
2024-03-09T22:30:09.326Z,1
2024-03-09T22:35:03.078Z,1
2024-03-09T22:40:02.588Z,1
2024-03-09T22:45:02.937Z,1
2024-03-09T22:50:02.367Z,1
2024-03-09T22:55:02.815Z,1
2024-03-09T23:00:03.146Z,1
2024-03-09T23:05:02.494Z,1
2024-03-09T23:10:02.950Z,1
2024-03-09T23:15:02.185Z,1
2024-03-09T23:20:03.119Z,1
2024-03-09T23:25:02.379Z,1
2024-03-09T23:30:02.612Z,1
2024-03-09T23:35:03.037Z,1
2024-03-09T23:40:02.375Z,1
2024-03-09T23:45:02.729Z,1
2024-03-09T23:50:03.049Z,1
2024-03-09T23:55:04.591Z,1
